New Prague, MN (56071)

4:26 AM CDT on September 03, 2015 (GMT -0500)
Lincoln Ave | | Change Station
CLOSE
Current Station
Personal Weather Station
Location: New Prague, MN
Elevation: 1019 ft
Nearby Weather Stations
Active Advisory: Special Statement

Elev 1019 ft 44.54 °N, 93.57 °W | Updated 1 minute ago

Fog
Fog
69.1 °F
Feels Like 69.1 °F
N
0.0
Wind Variable Wind from NE
Gusts 3.0 mph

Today
High -- | Low -- °F
--% Chance of Precip.
Yesterday
High -- | Low -- °F
Precip. -- in
6:38 AM 7:47 PM
Waning Gibbous, 72% visible
Pressure 29.90 in
Visibility 0.2 miles
Clouds Overcast 200 ft
Dew Point 68 °F
Humidity 95%
Rainfall 0.00 in
Snow Depth Not available.
UV 0 out of 12
Pollen 9.20 out of 12
Air Quality Not available.
Flu Activity Not available.
METAR KLVN 030906Z AUTO 09003KT 1/4SM FG OVC002 19/19 A2990 RMK AO2
Pressure 29.90 in
Visibility 0.2 miles
Clouds Overcast 200 ft
Dew Point 68 °F
Humidity 95%
Rainfall 0.00 in
Snow Depth Not available.
UV 0 out of 12
Pollen 9.20 out of 12
Air Quality Not available.
Flu Activity Not available.
METAR KLVN 030906Z AUTO 09003KT 1/4SM FG OVC002 19/19 A2990 RMK AO2

10-Day Weather Forecast

×

Almanac

Astronomy

Sep. 03, 2015 Rise Set
Actual Time
Civil Twilight
Nautical Twilight
Astronomical Twilight
Moon
Length of Visible Light
Length of Day
Tomorrow will be .
, % of the Moon is Illuminated

Today's Extremes

State Highs State Lows

Community

WunderPhotos

Upload Photos

1,851,922 photos uploaded!

WunderBlogs® & News

Nearby

Air Quality

  Air Quality AQ Index Pollutant
Not available.

Snow Depth

Station Depth Elevation

Earthquake Activity

City Distance Mag. Time & Date
Minimum magnitude displayed is 2.5.

Coastal Water Temperatures

Place Temperature

Stations

Nearby Weather Stations

Station Location Temp. Windchill Dew Point Humidity Wind Precip. Elev Updated Type
                   
Special Statement
Statement as of 4:07 AM CDT on September 03, 2015

... Pockets of dense fog this morning...

A few areas of dense fog will continue through the early morning
along and north of the Minnesota River Valley.


Jrb


407 am CDT Thu Sep 3 2015

... Pockets of dense fog this morning...

A few areas of dense fog will continue through the early morning
along and north of the Minnesota River Valley.


Jrb

407 am CDT Thu Sep 3 2015

... Pockets of dense fog this morning...

A few areas of dense fog will continue through the early morning
along and north of the Minnesota River Valley.


Jrb